Time;durP1;ratioP1;P1;durP2;ratioP2;P2;SDS_P1;SDS_P2;PMS_P1;PMS_P2;Temp;Humidity;BMP_temperature;BMP_pressure;BME280_temperature;BME280_humidity;BME280_pressure;Samples;Min_cycle;Max_cycle;Signal;HPM_P1;HPM_P2
2021/12/26 00:01:33;;;;;;;6.75;2.75;;;;;;;-6.04;100.00;100500.59;5253577;28;20153;-77
2021/12/26 00:04:05;;;;;;;7.10;2.70;;;;;;;-6.00;100.00;100489.69;5184622;28;20086;-78
2021/12/26 00:06:35;;;;;;;6.95;2.90;;;;;;;-6.02;100.00;100490.44;5185659;28;20093;-77
2021/12/26 00:09:06;;;;;;;6.50;2.88;;;;;;;-5.91;100.00;100495.03;5185301;28;20102;-77
2021/12/26 00:11:36;;;;;;;10.63;2.58;;;;;;;-5.99;100.00;100501.59;5195541;28;20030;-78
2021/12/26 00:14:07;;;;;;;7.15;2.90;;;;;;;-5.90;100.00;100501.81;5200904;28;20041;-77
2021/12/26 00:16:37;;;;;;;8.18;2.60;;;;;;;-6.13;100.00;100492.69;5187268;28;20563;-79
2021/12/26 00:19:08;;;;;;;6.88;2.60;;;;;;;-6.16;100.00;100486.66;5194005;28;20033;-77
2021/12/26 00:21:39;;;;;;;7.38;2.67;;;;;;;-6.09;100.00;100491.13;5184922;28;20092;-76
2021/12/26 00:24:09;;;;;;;5.65;2.38;;;;;;;-6.03;100.00;100497.25;5185055;28;20022;-76
2021/12/26 00:26:39;;;;;;;8.35;2.70;;;;;;;-6.19;100.00;100500.16;5186109;28;20386;-76
2021/12/26 00:29:10;;;;;;;4.43;2.05;;;;;;;-6.19;100.00;100499.28;5184400;28;20022;-77
2021/12/26 00:31:40;;;;;;;6.88;2.70;;;;;;;-6.11;100.00;100505.47;5292746;22;20044;-79
2021/12/26 00:34:11;;;;;;;7.53;2.63;;;;;;;-5.97;100.00;100507.56;5263229;28;20085;-78
2021/12/26 00:36:41;;;;;;;7.93;3.17;;;;;;;-6.00;100.00;100494.78;5266089;28;20023;-79
2021/12/26 00:39:12;;;;;;;8.20;2.63;;;;;;;-5.97;100.00;100499.94;5247859;28;20046;-78
2021/12/26 00:41:43;;;;;;;7.55;2.78;;;;;;;-5.98;100.00;100497.34;5265879;28;20035;-79
2021/12/26 00:44:13;;;;;;;7.53;2.65;;;;;;;-5.98;100.00;100498.22;5261999;28;20106;-79
2021/12/26 00:46:43;;;;;;;7.97;2.88;;;;;;;-5.96;100.00;100491.50;5241872;28;20070;-79
2021/12/26 00:49:14;;;;;;;5.70;2.75;;;;;;;-5.93;100.00;100491.56;5239270;28;20212;-79
2021/12/26 00:51:44;;;;;;;7.18;2.60;;;;;;;-5.90;100.00;100485.72;5267912;28;20081;-79
2021/12/26 00:54:14;;;;;;;5.85;2.65;;;;;;;-5.86;100.00;100487.53;5249835;28;20026;-79
2021/12/26 00:56:45;;;;;;;5.03;2.30;;;;;;;-5.77;100.00;100493.69;5246447;28;20055;-79
2021/12/26 00:59:15;;;;;;;6.78;2.60;;;;;;;-5.70;100.00;100497.28;5259605;28;20400;-79
2021/12/26 01:01:46;;;;;;;4.72;2.45;;;;;;;-5.74;100.00;100498.84;5249241;28;20016;-79
2021/12/26 01:04:16;;;;;;;7.05;2.78;;;;;;;-5.81;100.00;100493.59;5268246;28;20069;-79
2021/12/26 01:06:47;;;;;;;7.85;2.58;;;;;;;-5.95;100.00;100483.03;5262296;28;20496;-79
2021/12/26 01:09:23;;;;;;;6.53;2.75;;;;;;;-5.99;100.00;100491.41;5260760;28;20035;-79
2021/12/26 01:11:59;;;;;;;12.20;2.83;;;;;;;-5.75;100.00;100494.59;5244441;28;20019;-79
2021/12/26 01:14:31;;;;;;;7.10;3.03;;;;;;;-5.95;98.85;100488.13;5267941;28;20046;-79
2021/12/26 01:17:12;;;;;;;8.98;3.15;;;;;;;-6.24;97.62;100494.06;5258463;28;20032;-79
2021/12/26 01:19:47;;;;;;;10.77;3.13;;;;;;;-6.31;96.41;100493.81;5242233;28;20031;-78
2021/12/26 01:22:19;;;;;;;8.30;3.00;;;;;;;-6.97;98.16;100499.41;5252016;28;20029;-79
2021/12/26 01:24:55;;;;;;;7.07;3.25;;;;;;;-7.06;100.00;100510.13;5263472;28;20394;-80
2021/12/26 01:27:27;;;;;;;11.07;3.75;;;;;;;-7.01;100.00;100508.59;5264217;28;20031;-79
2021/12/26 01:29:57;;;;;;;7.43;3.15;;;;;;;-6.97;100.00;100502.78;5266353;28;20466;-79
2021/12/26 01:32:27;;;;;;;11.23;3.83;;;;;;;-7.06;100.00;100499.97;5267662;28;20034;-79
2021/12/26 01:34:57;;;;;;;9.73;3.60;;;;;;;-7.04;100.00;100508.50;5266836;28;20034;-79
2021/12/26 01:37:28;;;;;;;7.75;3.60;;;;;;;-6.95;99.31;100505.38;5248704;28;20081;-80
2021/12/26 01:39:58;;;;;;;8.93;3.28;;;;;;;-7.09;98.03;100509.16;5266914;28;20466;-80
2021/12/26 01:42:28;;;;;;;6.85;3.20;;;;;;;-6.98;99.52;100498.53;5261985;28;20063;-79
2021/12/26 01:44:59;;;;;;;10.60;3.63;;;;;;;-7.14;98.75;100500.53;5260002;28;20538;-79
2021/12/26 01:47:29;;;;;;;9.20;3.28;;;;;;;-6.95;99.11;100501.16;5255113;28;20390;-80
2021/12/26 01:50:00;;;;;;;9.65;3.75;;;;;;;-7.03;98.10;100494.09;5258989;28;20367;-79
2021/12/26 01:52:30;;;;;;;9.52;3.58;;;;;;;-7.06;98.94;100499.09;5264130;28;20099;-79
2021/12/26 01:55:20;;;;;;;9.77;3.63;;;;;;;-7.14;99.02;100500.53;5266061;28;20186;-79
2021/12/26 01:57:56;;;;;;;11.35;3.90;;;;;;;-7.20;99.30;100496.91;5266708;28;20599;-80
2021/12/26 02:00:26;;;;;;;9.80;3.30;;;;;;;-7.13;99.22;100487.88;5247886;28;20023;-79
2021/12/26 02:02:57;;;;;;;8.40;3.35;;;;;;;-7.15;99.18;100496.22;5266335;28;20413;-79
2021/12/26 02:05:27;;;;;;;9.52;3.58;;;;;;;-7.14;97.88;100492.91;5262758;28;20032;-80
2021/12/26 02:07:58;;;;;;;10.60;3.70;;;;;;;-7.26;98.62;100486.53;5259914;28;20082;-79
2021/12/26 02:10:28;;;;;;;11.82;3.33;;;;;;;-7.32;98.91;100486.34;5248817;28;20741;-80
2021/12/26 02:12:59;;;;;;;8.25;3.22;;;;;;;-7.41;99.53;100488.56;5266965;28;20434;-79
2021/12/26 02:15:29;;;;;;;7.80;3.28;;;;;;;-7.31;99.06;100490.63;5247616;28;20024;-79
2021/12/26 02:18:00;;;;;;;7.35;3.13;;;;;;;-7.27;98.09;100482.28;5263337;28;20048;-80
2021/12/26 02:24:00;;;;;;;11.52;3.00;;;;;;;-7.37;96.89;100490.44;5255044;28;20024;-80
2021/12/26 02:29:10;;;;;;;7.15;2.90;;;;;;;-7.48;97.30;100489.19;5262274;28;20084;-80
2021/12/26 02:31:41;;;;;;;7.82;3.15;;;;;;;-7.59;95.16;100488.81;5263900;28;20110;-79
2021/12/26 02:34:11;;;;;;;8.93;3.50;;;;;;;-7.76;96.11;100491.56;5254512;28;20481;-78
2021/12/26 02:36:42;;;;;;;15.07;3.83;;;;;;;-7.66;97.72;100480.94;5252917;28;20032;-79
2021/12/26 02:39:12;;;;;;;7.82;3.17;;;;;;;-7.55;96.68;100482.19;5250084;28;20029;-80
2021/12/26 02:41:43;;;;;;;7.85;3.13;;;;;;;-7.74;96.76;100477.31;5250502;28;20074;-80
2021/12/26 02:44:14;;;;;;;10.57;3.50;;;;;;;-7.79;96.89;100478.78;5231499;28;20088;-79
2021/12/26 02:46:44;;;;;;;12.63;3.60;;;;;;;-7.69;97.20;100475.78;5247664;28;20485;-79
2021/12/26 02:49:15;;;;;;;11.32;3.28;;;;;;;-7.68;97.58;100478.34;5251546;28;20114;-79
2021/12/26 02:51:45;;;;;;;12.13;4.53;;;;;;;-7.78;96.85;100483.06;5249884;28;20021;-79
2021/12/26 02:54:15;;;;;;;10.20;3.53;;;;;;;-7.80;95.96;100469.47;5251583;28;20031;-79
2021/12/26 02:56:46;;;;;;;9.55;3.35;;;;;;;-7.83;95.49;100471.91;5250635;28;20109;-79
2021/12/26 02:59:16;;;;;;;7.68;3.33;;;;;;;-7.81;96.58;100477.88;5240188;28;20126;-79
2021/12/26 03:01:46;;;;;;;7.07;3.65;;;;;;;-7.71;97.36;100477.41;5242921;28;20020;-79
2021/12/26 03:04:16;;;;;;;7.88;3.58;;;;;;;-7.83;97.32;100476.97;5270629;28;20227;-79
2021/12/26 03:07:02;;;;;;;8.55;2.83;;;;;;;-7.82;97.59;100471.97;5270945;28;20043;-79
2021/12/26 03:09:42;;;;;;;7.70;3.40;;;;;;;-7.87;96.54;100476.00;5270400;28;20016;-79
2021/12/26 03:12:13;;;;;;;7.38;3.00;;;;;;;-8.09;96.64;100482.78;5270996;28;20039;-79
2021/12/26 03:14:45;;;;;;;7.65;3.35;;;;;;;-8.26;97.10;100478.78;5265868;28;20034;-79
2021/12/26 03:17:15;;;;;;;9.05;3.05;;;;;;;-8.08;97.36;100479.47;5265604;28;20409;-80
2021/12/26 03:19:45;;;;;;;7.93;3.17;;;;;;;-8.16;97.15;100476.66;5261367;28;20028;-80
2021/12/26 03:22:16;;;;;;;9.23;3.40;;;;;;;-8.10;96.78;100474.31;5249586;28;20024;-80
2021/12/26 03:24:46;;;;;;;7.80;3.20;;;;;;;-7.88;96.50;100470.88;5271108;28;20493;-79
2021/12/26 03:27:16;;;;;;;9.00;3.35;;;;;;;-7.96;96.38;100463.00;5270140;28;20028;-80
2021/12/26 03:29:47;;;;;;;9.82;3.17;;;;;;;-8.06;96.88;100470.25;5250148;28;20023;-79
2021/12/26 03:32:17;;;;;;;10.07;3.53;;;;;;;-8.13;96.72;100466.63;5270763;28;20111;-78
2021/12/26 03:34:48;;;;;;;9.05;3.53;;;;;;;-8.26;97.21;100466.13;5251653;28;20035;-79
2021/12/26 03:37:19;;;;;;;11.48;3.65;;;;;;;-8.36;97.16;100466.63;5251401;28;20036;-78
2021/12/26 03:39:49;;;;;;;7.50;3.45;;;;;;;-8.29;97.41;100460.97;5251277;28;20034;-79
2021/12/26 03:42:21;;;;;;;8.63;3.35;;;;;;;-8.00;97.27;100460.31;5264809;28;20481;-80
2021/12/26 03:44:52;;;;;;;8.93;3.55;;;;;;;-7.97;95.98;100453.69;5262982;28;20453;-79
2021/12/26 03:47:22;;;;;;;7.07;3.35;;;;;;;-8.02;95.67;100460.25;5264367;28;20024;-79
2021/12/26 03:49:53;;;;;;;6.28;3.00;;;;;;;-8.04;95.86;100466.94;5260867;28;20024;-79
2021/12/26 03:52:24;;;;;;;9.70;3.63;;;;;;;-8.20;95.87;100463.84;5267075;28;20027;-79
2021/12/26 03:54:55;;;;;;;7.28;3.35;;;;;;;-8.05;95.69;100456.75;5268961;28;20397;-80
2021/12/26 03:57:25;;;;;;;8.63;3.20;;;;;;;-8.13;95.78;100461.56;5251297;28;20043;-79
2021/12/26 03:59:55;;;;;;;8.55;3.50;;;;;;;-8.22;95.24;100465.47;5268804;28;20016;-78
2021/12/26 04:02:26;;;;;;;12.57;3.47;;;;;;;-8.35;96.03;100469.19;5249077;28;20390;-78
2021/12/26 04:04:56;;;;;;;8.95;3.58;;;;;;;-7.97;94.92;100468.00;5266348;28;20063;-79
2021/12/26 04:07:27;;;;;;;10.65;3.13;;;;;;;-8.31;94.27;100460.03;5248653;28;20031;-79
2021/12/26 04:09:57;;;;;;;8.07;2.90;;;;;;;-8.36;95.25;100470.00;5267940;28;20020;-80
2021/12/26 04:12:34;;;;;;;9.85;3.53;;;;;;;-8.29;95.84;100464.38;5269584;28;20241;-79
2021/12/26 04:15:08;;;;;;;10.07;3.67;;;;;;;-7.88;94.61;100458.22;5264040;28;20062;-80
2021/12/26 04:17:38;;;;;;;8.88;3.78;;;;;;;-8.00;93.67;100453.59;5263149;28;20516;-79
2021/12/26 04:20:10;;;;;;;9.30;3.13;;;;;;;-8.09;95.89;100448.16;5261091;28;20032;-78
2021/12/26 04:22:41;;;;;;;8.43;3.28;;;;;;;-7.93;97.57;100444.50;5268980;28;20024;-79
2021/12/26 04:25:11;;;;;;;10.60;4.00;;;;;;;-7.79;99.25;100448.38;5268881;28;20135;-79
2021/12/26 04:27:41;;;;;;;9.60;3.25;;;;;;;-7.57;100.00;100445.75;5268964;28;20024;-80
2021/12/26 04:30:13;;;;;;;12.60;3.17;;;;;;;-7.23;100.00;100439.31;5268346;28;20038;-79
2021/12/26 04:32:44;;;;;;;10.88;3.55;;;;;;;-7.15;100.00;100431.13;5250868;28;20038;-79
2021/12/26 04:35:15;;;;;;;10.38;3.22;;;;;;;-7.11;100.00;100422.78;5250978;28;20028;-79
2021/12/26 04:37:46;;;;;;;8.18;3.60;;;;;;;-7.02;99.79;100420.56;5260257;28;20047;-80
2021/12/26 04:40:17;;;;;;;9.38;3.45;;;;;;;-6.98;99.26;100412.19;5249528;28;20058;-80
2021/12/26 04:42:49;;;;;;;10.35;3.20;;;;;;;-6.91;98.32;100409.03;5268355;28;20028;-79
2021/12/26 04:45:19;;;;;;;9.50;3.33;;;;;;;-6.93;96.87;100412.34;5263174;28;20073;-79
2021/12/26 04:47:50;;;;;;;9.20;3.10;;;;;;;-6.99;96.73;100405.41;5244590;28;20029;-79
2021/12/26 04:50:23;;;;;;;9.73;3.58;;;;;;;-6.97;95.57;100408.00;5261499;28;20020;-79
2021/12/26 04:52:54;;;;;;;9.40;2.95;;;;;;;-7.19;95.83;100414.91;5250911;28;20044;-79
2021/12/26 04:55:26;;;;;;;14.02;3.30;;;;;;;-7.37;96.93;100414.31;5251244;28;20062;-80
2021/12/26 04:57:57;;;;;;;8.13;3.33;;;;;;;-7.37;97.98;100409.25;5269215;28;20032;-79
2021/12/26 05:00:30;;;;;;;8.00;2.85;;;;;;;-7.26;97.79;100407.88;5269363;28;20405;-79
2021/12/26 05:03:05;;;;;;;9.48;3.42;;;;;;;-7.11;97.42;100415.16;5269167;28;20927;-79
2021/12/26 05:05:36;;;;;;;8.90;3.38;;;;;;;-7.20;95.69;100418.25;5269457;28;20032;-80
2021/12/26 05:08:06;;;;;;;8.32;3.22;;;;;;;-7.10;95.30;100416.03;5269663;28;20438;-80
2021/12/26 05:10:38;;;;;;;11.60;3.53;;;;;;;-7.01;94.68;100417.19;5269282;28;20270;-79
2021/12/26 05:13:09;;;;;;;6.47;3.05;;;;;;;-7.15;94.13;100422.63;5268920;28;20028;-79
2021/12/26 05:15:40;;;;;;;7.53;3.38;;;;;;;-7.26;93.50;100413.84;5263312;28;20069;-79
2021/12/26 05:18:11;;;;;;;10.02;3.65;;;;;;;-7.56;95.08;100412.00;5259981;28;20036;-80
2021/12/26 05:20:41;;;;;;;9.05;3.35;;;;;;;-7.39;95.29;100408.34;5243829;28;20509;-80
2021/12/26 05:23:11;;;;;;;8.55;3.30;;;;;;;-7.62;95.28;100416.84;5269902;28;20027;-79
2021/12/26 05:25:42;;;;;;;9.00;2.90;;;;;;;-7.61;95.78;100416.91;5250953;28;20020;-80
2021/12/26 05:28:12;;;;;;;9.70;3.42;;;;;;;-7.77;95.47;100411.25;5268830;28;20012;-80
2021/12/26 05:30:42;;;;;;;7.03;3.10;;;;;;;-7.56;96.50;100414.53;5250621;28;20477;-79
2021/12/26 05:33:13;;;;;;;9.70;3.60;;;;;;;-7.69;96.36;100420.84;5269255;28;20032;-80
2021/12/26 05:35:43;;;;;;;8.48;3.55;;;;;;;-7.91;98.37;100427.69;5270051;28;20024;-79
2021/12/26 05:38:14;;;;;;;7.88;3.50;;;;;;;-7.79;97.68;100423.03;5251853;28;20091;-80
2021/12/26 05:40:44;;;;;;;10.32;3.85;;;;;;;-7.78;97.36;100419.66;5270223;28;20079;-80
2021/12/26 05:43:14;;;;;;;10.70;3.95;;;;;;;-7.74;97.28;100416.47;5255193;28;20048;-80
2021/12/26 05:45:44;;;;;;;8.23;3.53;;;;;;;-7.86;96.75;100416.03;5246510;28;20456;-79
2021/12/26 05:48:15;;;;;;;9.32;3.20;;;;;;;-7.71;97.33;100411.47;5241289;28;20016;-79
2021/12/26 05:50:46;;;;;;;8.80;3.30;;;;;;;-7.73;98.16;100408.88;5259628;28;20054;-78
2021/12/26 05:53:16;;;;;;;12.40;4.35;;;;;;;-7.66;98.45;100403.22;5246311;28;20023;-78
2021/12/26 05:55:46;;;;;;;10.32;3.80;;;;;;;-7.54;97.89;100410.38;5253927;28;20043;-79
2021/12/26 05:58:17;;;;;;;8.63;3.72;;;;;;;-7.57;99.18;100412.78;5278528;28;20103;-79
2021/12/26 06:00:47;;;;;;;10.60;4.18;;;;;;;-7.34;100.00;100410.19;5271767;28;20032;-80
2021/12/26 06:03:17;;;;;;;7.93;3.17;;;;;;;-7.25;100.00;100414.69;5246336;28;20073;-79
2021/12/26 06:05:48;;;;;;;10.18;4.00;;;;;;;-7.19;100.00;100415.75;5264917;28;20106;-79
2021/12/26 06:08:18;;;;;;;11.32;3.60;;;;;;;-7.15;100.00;100423.50;5264814;28;20064;-79
2021/12/26 06:10:48;;;;;;;8.70;3.63;;;;;;;-7.36;100.00;100421.09;5264727;28;20458;-78
2021/12/26 06:13:19;;;;;;;9.88;3.63;;;;;;;-7.38;100.00;100422.75;5264534;28;20020;-80
2021/12/26 06:15:49;;;;;;;8.82;3.85;;;;;;;-7.26;99.91;100418.03;5259996;28;20032;-80
2021/12/26 06:18:20;;;;;;;8.45;3.88;;;;;;;-7.26;98.72;100418.91;5259633;28;20039;-80
2021/12/26 06:20:50;;;;;;;9.85;3.58;;;;;;;-7.44;98.29;100418.31;5243684;28;20027;-79
2021/12/26 06:23:20;;;;;;;7.93;3.97;;;;;;;-7.86;97.02;100416.88;5267266;28;20052;-80
2021/12/26 06:25:51;;;;;;;8.35;3.70;;;;;;;-7.87;97.14;100416.84;5267199;28;20027;-80
2021/12/26 06:28:21;;;;;;;10.00;3.45;;;;;;;-7.73;99.83;100413.94;5266400;28;20050;-80
2021/12/26 06:30:51;;;;;;;11.88;3.95;;;;;;;-7.46;100.00;100411.47;5325070;22;20071;-81
2021/12/26 06:33:22;;;;;;;12.07;3.80;;;;;;;-7.41;100.00;100415.88;5261002;28;20024;-80
2021/12/26 06:35:52;;;;;;;9.38;4.25;;;;;;;-7.44;100.00;100418.31;5269078;28;20024;-79
2021/12/26 06:38:22;;;;;;;10.30;4.38;;;;;;;-7.18;100.00;100420.00;5269799;28;20027;-79
2021/12/26 06:40:52;;;;;;;8.63;3.55;;;;;;;-7.17;99.00;100424.25;5270305;28;20028;-79
2021/12/26 06:43:23;;;;;;;11.88;4.03;;;;;;;-7.65;99.05;100416.75;5269908;28;20101;-79
2021/12/26 06:45:54;;;;;;;11.48;3.92;;;;;;;-7.63;100.00;100418.53;5263408;28;20043;-79
2021/12/26 06:48:25;;;;;;;10.63;3.92;;;;;;;-7.91;99.11;100422.63;5261542;28;20032;-79
2021/12/26 06:50:55;;;;;;;10.63;3.63;;;;;;;-7.79;99.55;100428.97;5261525;28;20063;-79
2021/12/26 06:53:26;;;;;;;10.73;3.60;;;;;;;-7.95;97.81;100430.91;5262156;28;20075;-79
2021/12/26 06:55:56;;;;;;;9.38;3.83;;;;;;;-7.94;98.48;100425.91;5268587;28;20028;-76
2021/12/26 06:58:26;;;;;;;10.50;3.47;;;;;;;-8.22;99.21;100424.94;5258199;28;20390;-76
2021/12/26 07:00:57;;;;;;;8.63;3.42;;;;;;;-8.08;97.65;100413.56;5266475;28;20106;-78
2021/12/26 07:03:27;;;;;;;9.90;3.72;;;;;;;-7.93;97.00;100416.59;5270136;28;20027;-78
2021/12/26 07:05:58;;;;;;;12.82;4.05;;;;;;;-8.04;96.91;100411.19;5268524;28;20295;-79
2021/12/26 07:08:28;;;;;;;11.48;3.90;;;;;;;-8.19;96.55;100409.81;5269666;28;20405;-78
2021/12/26 07:10:58;;;;;;;9.70;3.83;;;;;;;-8.16;95.52;100407.34;5265630;28;20062;-79
2021/12/26 07:13:28;;;;;;;9.60;3.40;;;;;;;-8.12;96.41;100409.19;5263744;28;20458;-78
2021/12/26 07:15:59;;;;;;;7.75;3.10;;;;;;;-8.06;95.11;100406.88;5270344;28;20076;-78
2021/12/26 07:18:29;;;;;;;10.57;3.22;;;;;;;-8.16;95.13;100407.34;5262977;28;20039;-78
2021/12/26 07:20:59;;;;;;;6.88;3.05;;;;;;;-8.17;94.51;100420.84;5264164;28;20432;-76
2021/12/26 07:23:30;;;;;;;9.15;3.50;;;;;;;-8.09;95.14;100419.41;5269714;28;20024;-76
2021/12/26 07:26:00;;;;;;;12.52;4.05;;;;;;;-8.00;96.40;100423.16;5268539;28;20075;-76
2021/12/26 07:28:30;;;;;;;10.48;4.25;;;;;;;-7.88;96.43;100410.91;5268770;28;20047;-76
2021/12/26 07:31:01;;;;;;;10.20;4.13;;;;;;;-7.55;97.35;100418.78;5268323;28;20130;-76
2021/12/26 07:33:31;;;;;;;13.90;4.30;;;;;;;-7.50;98.12;100414.72;5264179;28;20039;-79
2021/12/26 07:36:02;;;;;;;10.23;4.30;;;;;;;-7.26;97.82;100418.91;5269225;28;20069;-78
2021/12/26 07:38:33;;;;;;;8.95;3.90;;;;;;;-7.19;97.72;100420.81;5268156;28;20047;-77
2021/12/26 07:41:03;;;;;;;14.98;4.47;;;;;;;-7.17;97.42;100427.69;5264591;28;20720;-77
2021/12/26 07:43:34;;;;;;;9.15;3.95;;;;;;;-7.20;95.93;100418.25;5258353;28;20066;-76
2021/12/26 07:46:04;;;;;;;10.35;4.20;;;;;;;-7.13;95.84;100419.34;5262476;28;20063;-76
2021/12/26 07:48:34;;;;;;;9.05;3.78;;;;;;;-7.21;94.52;100422.44;5259740;28;20054;-77
2021/12/26 07:51:06;;;;;;;9.40;3.70;;;;;;;-6.94;94.26;100419.09;5259376;28;20031;-76
2021/12/26 07:53:36;;;;;;;8.80;3.83;;;;;;;-6.42;92.92;100427.44;5265280;28;20453;-77
2021/12/26 07:56:06;;;;;;;9.57;3.78;;;;;;;-6.15;91.14;100425.69;5265392;28;20035;-77
2021/12/26 07:58:36;;;;;;;10.40;3.22;;;;;;;-5.80;88.81;100416.47;5264685;28;20024;-77
2021/12/26 08:01:07;;;;;;;10.70;3.70;;;;;;;-5.02;86.19;100411.63;5264808;28;20385;-76
2021/12/26 08:03:38;;;;;;;8.88;3.40;;;;;;;-4.41;85.05;100412.16;5250471;28;20023;-77
2021/12/26 08:06:09;;;;;;;8.85;3.13;;;;;;;-3.62;82.27;100401.84;5247440;28;20082;-78
2021/12/26 08:08:39;;;;;;;8.68;3.13;;;;;;;-3.48;78.41;100405.50;5249524;28;20417;-76
2021/12/26 08:11:09;;;;;;;7.00;3.17;;;;;;;-2.64;78.03;100411.06;5248010;28;20043;-77
2021/12/26 08:13:40;;;;;;;7.85;2.75;;;;;;;-2.55;75.86;100412.06;5249803;28;20089;-78
2021/12/26 08:16:10;;;;;;;7.75;2.88;;;;;;;-2.84;77.12;100417.59;5255158;28;20032;-83
2021/12/26 08:18:42;;;;;;;8.40;3.63;;;;;;;-1.86;75.28;100402.69;5227899;28;20031;-81
2021/12/26 08:21:12;;;;;;;10.80;4.18;;;;;;;-2.59;76.04;100407.75;5247417;28;20028;-78
2021/12/26 08:23:42;;;;;;;8.85;3.78;;;;;;;-1.92;77.69;100394.06;5248712;28;20035;-77
2021/12/26 08:26:13;;;;;;;9.63;4.20;;;;;;;-2.50;77.39;100404.47;5246569;28;20390;-79
2021/12/26 08:28:43;;;;;;;10.05;3.92;;;;;;;-2.83;78.72;100402.25;5248302;28;20027;-77
2021/12/26 08:31:16;;;;;;;9.00;3.90;;;;;;;-2.62;77.04;100397.47;5244235;28;20032;-79
2021/12/26 08:33:47;;;;;;;9.25;3.90;;;;;;;-1.91;77.81;100399.22;5240835;28;20208;-78
2021/12/26 08:36:21;;;;;;;10.07;4.00;;;;;;;-2.21;76.41;100398.88;5247411;28;20500;-78
2021/12/26 08:38:51;;;;;;;9.02;3.78;;;;;;;-2.14;77.40;100387.84;5250015;28;20043;-77
2021/12/26 08:41:23;;;;;;;10.07;3.75;;;;;;;-3.56;82.88;100398.53;5247665;28;20024;-79
2021/12/26 08:43:53;;;;;;;11.85;4.50;;;;;;;-4.14;83.87;100402.53;5246666;28;20033;-77
2021/12/26 08:46:24;;;;;;;10.52;3.67;;;;;;;-4.54;86.33;100397.44;5248696;28;20042;-79
2021/12/26 08:48:54;;;;;;;10.70;3.80;;;;;;;-4.44;85.39;100396.81;5246317;28;20029;-79
2021/12/26 08:51:24;;;;;;;9.35;3.83;;;;;;;-4.65;86.78;100391.25;5247728;28;20586;-79
2021/12/26 08:53:54;;;;;;;7.25;3.50;;;;;;;-4.76;88.76;100392.69;5232943;28;20028;-77
2021/12/26 08:56:25;;;;;;;11.43;4.18;;;;;;;-4.56;88.42;100391.44;5263100;28;20115;-77
2021/12/26 08:58:55;;;;;;;10.32;3.95;;;;;;;-4.47;90.19;100401.84;5255926;28;20035;-78
2021/12/26 09:01:25;;;;;;;13.63;5.45;;;;;;;-4.22;91.46;100399.81;5247682;28;20058;-76
2021/12/26 09:03:56;;;;;;;12.05;5.47;;;;;;;-4.21;91.87;100401.53;5255804;28;20032;-77
2021/12/26 09:06:26;;;;;;;16.23;5.20;;;;;;;-4.25;92.25;100406.53;5263527;28;20051;-78
2021/12/26 09:08:56;;;;;;;14.30;5.57;;;;;;;-4.65;91.90;100398.91;5254035;28;20020;-79
2021/12/26 09:11:27;;;;;;;12.73;5.43;;;;;;;-4.62;93.21;100412.56;5262007;28;20031;-77
2021/12/26 09:13:57;;;;;;;13.27;5.70;;;;;;;-4.77;93.20;100403.72;5253977;28;20052;-76
2021/12/26 09:16:33;;;;;;;13.27;5.43;;;;;;;-4.68;92.56;100402.25;5254991;28;20028;-76
2021/12/26 09:19:05;;;;;;;13.15;5.45;;;;;;;-4.76;93.92;100397.81;5250488;28;20073;-78
2021/12/26 09:21:35;;;;;;;13.02;5.53;;;;;;;-4.74;93.83;100406.34;5252588;28;20455;-75
2021/12/26 09:24:06;;;;;;;13.90;5.50;;;;;;;-4.72;93.10;100405.56;5262598;28;20081;-76
2021/12/26 09:26:37;;;;;;;11.55;5.05;;;;;;;-4.70;92.97;100397.91;5240726;28;20111;-78
2021/12/26 09:29:07;;;;;;;15.52;5.68;;;;;;;-4.56;93.58;100392.31;5262344;28;20119;-78
2021/12/26 09:31:37;;;;;;;12.55;4.97;;;;;;;-4.60;92.96;100393.06;5252689;28;20031;-76
2021/12/26 09:34:08;;;;;;;13.75;5.50;;;;;;;-4.39;93.71;100395.19;5238875;28;20028;-77
2021/12/26 09:36:38;;;;;;;15.05;5.13;;;;;;;-4.28;94.29;100402.22;5242394;28;20065;-75
2021/12/26 09:39:09;;;;;;;22.05;7.97;;;;;;;-4.29;94.12;100399.66;5244690;28;20032;-77
2021/12/26 09:41:40;;;;;;;11.63;5.18;;;;;;;-4.17;94.55;100402.44;5243762;28;20058;-76
2021/12/26 09:44:10;;;;;;;14.05;6.28;;;;;;;-4.17;94.35;100402.44;5245766;28;20442;-76
2021/12/26 09:46:41;;;;;;;12.00;5.55;;;;;;;-3.95;92.68;100402.91;5244375;28;20034;-77
2021/12/26 09:49:11;;;;;;;12.07;5.15;;;;;;;-3.76;92.46;100397.28;5238090;28;20509;-78
2021/12/26 09:51:41;;;;;;;13.13;4.70;;;;;;;-3.77;91.74;100404.94;5240125;28;20103;-76
2021/12/26 09:54:12;;;;;;;13.77;5.32;;;;;;;-3.63;91.66;100398.41;5247142;28;20023;-77
2021/12/26 09:56:43;;;;;;;12.90;5.40;;;;;;;-3.55;92.14;100393.44;5256801;28;20417;-78
2021/12/26 09:59:19;;;;;;;13.05;5.13;;;;;;;-3.48;92.24;100379.09;5260217;28;20056;-77
2021/12/26 10:01:53;;;;;;;12.63;4.60;;;;;;;-3.55;90.88;100398.53;5246289;28;20036;-77
2021/12/26 10:04:27;;;;;;;12.23;5.13;;;;;;;-3.56;91.13;100396.81;5252661;28;20029;-77
2021/12/26 10:07:07;;;;;;;10.93;5.38;;;;;;;-3.44;90.90;100388.50;5253493;28;20020;-76
2021/12/26 10:09:39;;;;;;;12.82;5.40;;;;;;;-3.28;91.26;100385.38;5257796;28;20038;-77
2021/12/26 10:12:14;;;;;;;12.13;5.43;;;;;;;-3.31;91.62;100388.75;5260725;28;20028;-77
2021/12/26 10:14:49;;;;;;;11.73;5.25;;;;;;;-3.28;91.08;100387.94;5254657;28;20107;-77
2021/12/26 10:17:26;;;;;;;11.57;5.20;;;;;;;-3.30;92.11;100385.38;5254682;28;20431;-76
2021/12/26 10:20:10;;;;;;;13.02;6.00;;;;;;;-3.29;93.52;100393.88;5251121;28;20031;-77
2021/12/26 10:22:40;;;;;;;11.73;5.45;;;;;;;-3.40;91.39;100391.16;5260650;28;20030;-78
2021/12/26 10:25:14;;;;;;;11.15;4.78;;;;;;;-3.38;90.53;100381.81;5258438;28;20028;-76
2021/12/26 10:27:46;;;;;;;10.90;4.80;;;;;;;-3.41;89.39;100383.44;5248884;28;20385;-77
2021/12/26 10:30:22;;;;;;;13.13;4.70;;;;;;;-3.26;90.25;100387.13;5261904;28;20246;-77
2021/12/26 10:32:56;;;;;;;;;;;;;;;-3.38;89.07;100378.41;5251450;28;20031;-77
2021/12/26 10:35:28;;;;;;;10.43;4.43;;;;;;;-3.43;89.79;100370.69;5252144;28;20010;-77
2021/12/26 10:37:59;;;;;;;12.10;5.03;;;;;;;-3.31;89.68;100378.53;5256640;28;20481;-77
2021/12/26 10:40:34;;;;;;;16.17;5.68;;;;;;;-3.24;90.53;100375.25;5255509;28;20047;-77
2021/12/26 10:43:05;;;;;;;10.75;4.60;;;;;;;-3.32;89.45;100375.94;5254272;28;20482;-76
2021/12/26 10:45:35;;;;;;;8.98;4.70;;;;;;;-3.30;89.71;100364.94;5253459;28;20111;-77
2021/12/26 10:48:08;;;;;;;13.65;5.70;;;;;;;-3.28;89.60;100359.84;5251906;28;20016;-76
2021/12/26 10:50:40;;;;;;;11.70;4.85;;;;;;;-3.40;89.38;100363.06;5254700;28;20070;-77
2021/12/26 10:53:14;;;;;;;14.43;5.45;;;;;;;-3.29;88.98;100356.44;5261224;28;20411;-77
2021/12/26 10:55:51;;;;;;;12.70;5.07;;;;;;;-3.39;88.70;100359.66;5257068;28;20031;-78
2021/12/26 10:58:23;;;;;;;8.75;4.18;;;;;;;-3.42;88.72;100349.41;5251348;28;20024;-77
2021/12/26 11:00:58;;;;;;;14.25;5.68;;;;;;;-3.38;88.64;100348.63;5258294;28;20110;-76
2021/12/26 11:03:30;;;;;;;12.15;5.20;;;;;;;-3.28;89.48;100350.50;5261080;28;20097;-76
2021/12/26 11:06:04;;;;;;;10.30;4.47;;;;;;;-3.18;89.14;100347.22;5256638;28;20043;-76
2021/12/26 11:08:41;;;;;;;12.32;4.97;;;;;;;-3.08;88.55;100350.78;5255793;28;20032;-76
2021/12/26 11:11:17;;;;;;;10.50;5.15;;;;;;;-3.00;90.02;100342.38;5254355;28;20024;-77
2021/12/26 11:13:50;;;;;;;11.55;5.05;;;;;;;-2.91;87.98;100334.88;5251143;28;20020;-78
2021/12/26 11:16:20;;;;;;;11.32;5.05;;;;;;;-2.89;88.76;100343.41;5246513;28;20032;-78
2021/12/26 11:18:54;;;;;;;11.88;5.00;;;;;;;-2.82;88.43;100339.25;5242682;28;20040;-78
2021/12/26 11:21:25;;;;;;;8.45;4.10;;;;;;;-2.69;86.26;100341.97;5247996;28;20040;-77
2021/12/26 11:23:55;;;;;;;11.85;4.72;;;;;;;-2.56;87.21;100328.50;5248807;28;20040;-77
2021/12/26 11:26:25;;;;;;;9.52;3.88;;;;;;;-2.49;84.02;100334.56;5244631;28;20056;-76
2021/12/26 11:28:56;;;;;;;11.55;4.85;;;;;;;-2.36;86.15;100332.16;5252921;28;20016;-77
2021/12/26 11:31:28;;;;;;;11.13;4.80;;;;;;;-2.30;84.99;100342.44;5262825;28;20452;-77
2021/12/26 11:34:04;;;;;;;11.07;4.47;;;;;;;-2.37;83.39;100333.00;5265060;28;20565;-77
2021/12/26 11:36:35;;;;;;;9.88;3.63;;;;;;;-2.38;84.16;100333.84;5253884;28;20139;-76
2021/12/26 11:39:08;;;;;;;10.35;4.18;;;;;;;-2.28;84.79;100324.56;5261563;28;20134;-77
2021/12/26 11:42:05;;;;;;;10.43;4.07;;;;;;;-2.23;81.88;100321.22;5240943;28;20066;-76
2021/12/26 11:45:01;;;;;;;8.55;3.88;;;;;;;-2.14;83.07;100312.78;5252581;28;20531;-76